Time;durP1;ratioP1;P1;durP2;ratioP2;P2;SDS_P1;SDS_P2;PMS_P1;PMS_P2;Temp;Humidity;BMP_temperature;BMP_pressure;BME280_temperature;BME280_humidity;BME280_pressure;Samples;Min_cycle;Max_cycle;Signal;HPM_P1;HPM_P2
2021/04/02 00:00:49;;;;;;;11.45;3.70;;;;;;;3.87;77.88;102575.13;5029595;28;20045;-38
2021/04/02 00:03:21;;;;;;;13.63;3.75;;;;;;;3.86;77.52;102577.75;5035497;28;20412;-38
2021/04/02 00:05:49;;;;;;;11.60;4.05;;;;;;;3.74;78.16;102576.13;5022455;28;20050;-38
2021/04/02 00:08:24;;;;;;;11.43;3.85;;;;;;;3.71;77.95;102583.97;4998694;28;20049;-38
2021/04/02 00:11:00;;;;;;;15.48;3.83;;;;;;;3.67;78.19;102574.44;5014727;28;20440;-38
2021/04/02 00:13:34;;;;;;;11.20;4.05;;;;;;;3.64;78.85;102583.13;5021940;28;20083;-38
2021/04/02 00:16:01;;;;;;;10.18;3.42;;;;;;;3.66;78.22;102585.72;5032627;28;20129;-38
2021/04/02 00:18:28;;;;;;;9.98;3.53;;;;;;;3.60;78.87;102578.84;5034335;28;20056;-38
2021/04/02 00:20:57;;;;;;;11.75;3.70;;;;;;;3.58;78.44;102582.31;5032959;28;20057;-38
2021/04/02 00:23:24;;;;;;;14.15;3.75;;;;;;;3.57;78.87;102585.78;5034002;28;20400;-38
2021/04/02 00:25:52;;;;;;;12.00;3.63;;;;;;;3.62;78.60;102591.84;5033425;28;20051;-38
2021/04/02 00:28:23;;;;;;;13.90;3.75;;;;;;;3.59;78.76;102589.25;5016959;28;20510;-38
2021/04/02 00:30:54;;;;;;;10.27;3.70;;;;;;;3.51;78.74;102576.31;5017943;28;20042;-38
2021/04/02 00:33:25;;;;;;;12.48;3.58;;;;;;;3.54;79.00;102582.34;5014931;28;20440;-38
2021/04/02 00:35:52;;;;;;;12.93;3.58;;;;;;;3.51;79.06;102579.75;5014985;28;20118;-38
2021/04/02 00:38:20;;;;;;;10.38;3.78;;;;;;;3.47;79.02;102585.00;5014075;28;20053;-38
2021/04/02 00:41:02;;;;;;;12.45;3.67;;;;;;;3.42;79.16;102585.03;5015263;28;20050;-38
2021/04/02 00:43:42;;;;;;;11.93;4.30;;;;;;;3.43;78.46;102583.31;5033876;28;20041;-38
2021/04/02 00:46:10;;;;;;;8.13;3.20;;;;;;;3.39;79.23;102585.06;5034706;28;20081;-38
2021/04/02 00:48:38;;;;;;;9.13;3.30;;;;;;;3.35;78.75;102575.53;5033501;28;20041;-38
2021/04/02 00:51:23;;;;;;;12.30;3.97;;;;;;;3.41;78.69;102579.84;5033631;28;20049;-38
2021/04/02 00:53:50;;;;;;;9.52;3.65;;;;;;;3.29;78.92;102576.47;5033587;28;20140;-38
2021/04/02 00:56:18;;;;;;;10.90;3.25;;;;;;;3.27;79.70;102578.19;5033647;28;20441;-38
2021/04/02 00:58:46;;;;;;;10.73;3.58;;;;;;;3.30;78.52;102572.09;5033366;28;20045;-38
2021/04/02 01:01:14;;;;;;;10.15;3.22;;;;;;;3.33;78.56;102577.31;5033847;28;20124;-38
2021/04/02 01:03:42;;;;;;;13.02;3.78;;;;;;;3.25;79.50;102576.50;5034201;28;20046;-38
2021/04/02 01:06:16;;;;;;;8.02;3.33;;;;;;;3.29;78.50;102578.22;5018582;28;20415;-38
2021/04/02 01:08:44;;;;;;;11.35;3.40;;;;;;;3.19;78.84;102575.66;5027372;28;20472;-38
2021/04/02 01:11:20;;;;;;;10.05;3.17;;;;;;;3.15;78.99;102571.34;5030702;28;20048;-38
2021/04/02 01:13:55;;;;;;;13.00;3.53;;;;;;;3.20;78.26;102579.13;5033902;28;20072;-38
2021/04/02 01:16:30;;;;;;;12.50;4.43;;;;;;;3.08;79.31;102576.59;5034158;28;20056;-38
2021/04/02 01:19:09;;;;;;;15.32;3.80;;;;;;;3.07;78.97;102573.16;5032383;28;20053;-38
2021/04/02 01:21:43;;;;;;;11.90;3.25;;;;;;;2.94;79.98;102563.69;5034505;28;20050;-38
2021/04/02 01:24:21;;;;;;;10.35;3.65;;;;;;;2.91;79.96;102576.72;5032906;28;20080;-38
2021/04/02 01:27:13;;;;;;;10.30;2.75;;;;;;;3.01;79.44;102573.16;5033181;28;20163;-38
2021/04/02 01:29:56;;;;;;;15.35;3.50;;;;;;;2.87;80.12;102566.31;5032462;28;20057;-38
2021/04/02 01:32:35;;;;;;;7.45;2.85;;;;;;;2.84;80.51;102566.31;5032508;28;20057;-38
2021/04/02 01:35:27;;;;;;;8.82;3.03;;;;;;;2.80;80.16;102563.75;5032531;28;20045;-38
2021/04/02 01:38:02;;;;;;;12.85;3.13;;;;;;;2.77;81.05;102568.97;5033588;28;20054;-38
2021/04/02 01:40:33;;;;;;;11.20;3.25;;;;;;;2.73;81.23;102569.84;5032911;28;20088;-38
2021/04/02 01:43:03;;;;;;;11.38;3.00;;;;;;;2.70;80.77;102566.41;5032636;28;20535;-38
2021/04/02 01:45:30;;;;;;;10.52;3.08;;;;;;;2.74;80.73;102569.88;5015999;28;20084;-38
2021/04/02 01:47:58;;;;;;;11.27;2.85;;;;;;;2.70;81.21;102566.41;5032468;28;20107;-38
2021/04/02 01:50:26;;;;;;;9.35;2.80;;;;;;;2.67;81.10;102565.53;5033591;28;20460;-38
2021/04/02 01:52:54;;;;;;;13.35;3.03;;;;;;;2.69;81.52;102569.00;5032463;28;20049;-37
2021/04/02 01:55:22;;;;;;;12.38;3.10;;;;;;;2.71;81.22;102562.06;5033484;28;20443;-38
2021/04/02 01:57:53;;;;;;;10.95;2.80;;;;;;;2.74;81.29;102563.78;5029966;28;20030;-38
2021/04/02 02:00:33;;;;;;;11.90;3.40;;;;;;;2.68;81.38;102562.94;5020526;28;20137;-38
2021/04/02 02:03:01;;;;;;;10.23;2.70;;;;;;;2.66;81.55;102562.09;5014809;28;20061;-38
2021/04/02 02:05:30;;;;;;;10.25;3.17;;;;;;;2.64;81.73;102563.81;5013440;28;20104;-38
2021/04/02 02:07:59;;;;;;;12.57;3.40;;;;;;;2.65;81.93;102567.28;5027957;28;20082;-38
2021/04/02 02:10:29;;;;;;;11.57;2.60;;;;;;;2.65;81.96;102562.09;5028120;28;20037;-38
2021/04/02 02:12:59;;;;;;;9.90;3.00;;;;;;;2.62;81.91;102565.56;5028679;28;20120;-38
2021/04/02 02:15:32;;;;;;;10.10;3.25;;;;;;;2.65;81.76;102565.56;5031981;28;20154;-38
2021/04/02 02:18:01;;;;;;;8.63;2.90;;;;;;;2.65;81.87;102562.09;5030665;28;20432;-38
2021/04/02 02:20:29;;;;;;;11.77;3.38;;;;;;;2.69;81.64;102562.06;5014299;28;20073;-38
2021/04/02 02:22:58;;;;;;;9.93;2.78;;;;;;;2.64;81.92;102555.16;5037857;28;20049;-38
2021/04/02 02:25:28;;;;;;;9.15;2.67;;;;;;;2.69;81.42;102558.63;5013073;28;20408;-38
2021/04/02 02:27:59;;;;;;;11.73;2.88;;;;;;;2.64;81.89;102550.81;5046860;28;20048;-38
2021/04/02 02:30:28;;;;;;;7.78;2.67;;;;;;;2.63;81.76;102556.03;5032784;28;20706;-38
2021/04/02 02:32:56;;;;;;;8.85;2.47;;;;;;;2.65;81.90;102559.50;5015271;28;20085;-38
2021/04/02 02:35:23;;;;;;;10.23;2.78;;;;;;;2.70;81.89;102560.34;5031649;28;20055;-38
2021/04/02 02:37:52;;;;;;;7.18;2.67;;;;;;;2.67;82.22;102558.63;5047685;28;20579;-38
2021/04/02 02:40:22;;;;;;;8.27;3.50;;;;;;;2.68;82.17;102567.28;5015117;28;20041;-39
2021/04/02 02:42:54;;;;;;;9.27;2.90;;;;;;;2.66;82.46;102566.44;5012374;28;20073;-38
2021/04/02 02:45:21;;;;;;;;;;;;;;;2.66;82.79;102556.03;5013036;28;20046;-38
2021/04/02 02:47:48;;;;;;;9.57;2.75;;;;;;;2.68;82.34;102564.69;5011361;28;19960;-38
2021/04/02 02:50:19;;;;;;;8.05;2.67;;;;;;;2.71;82.04;102559.47;5029384;28;20111;-38
2021/04/02 02:52:47;;;;;;;12.20;2.97;;;;;;;2.69;82.28;102558.63;5013034;28;20448;-38
2021/04/02 02:55:15;;;;;;;10.50;2.65;;;;;;;2.70;82.73;102566.41;5013252;28;20056;-38
2021/04/02 02:57:44;;;;;;;14.13;2.72;;;;;;;2.67;82.60;102568.13;5032280;28;20096;-38
2021/04/02 03:00:15;;;;;;;10.30;3.38;;;;;;;2.69;82.89;102569.00;5030892;28;20071;-38
2021/04/02 03:02:47;;;;;;;11.38;2.97;;;;;;;2.71;82.75;102564.66;5028857;28;20127;-38
2021/04/02 03:05:16;;;;;;;6.22;2.78;;;;;;;2.70;82.66;102566.41;4998731;28;20391;-38
2021/04/02 03:07:44;;;;;;;7.93;2.47;;;;;;;2.69;83.41;102564.66;5030972;28;20033;-38
2021/04/02 03:10:12;;;;;;;9.55;2.72;;;;;;;2.65;83.15;102564.69;5029978;28;20050;-38
2021/04/02 03:12:45;;;;;;;10.77;2.78;;;;;;;2.67;83.20;102566.44;5014577;28;20080;-38
2021/04/02 03:15:13;;;;;;;11.00;2.97;;;;;;;2.65;83.55;102565.56;5030464;28;20478;-39
2021/04/02 03:17:41;;;;;;;7.47;2.58;;;;;;;2.70;83.83;102568.16;5030216;28;20044;-40
2021/04/02 03:20:10;;;;;;;8.20;3.03;;;;;;;2.64;84.29;102571.63;5042479;28;20053;-40
2021/04/02 03:22:37;;;;;;;8.07;2.55;;;;;;;2.64;84.68;102571.63;5012236;28;20100;-40
2021/04/02 03:25:13;;;;;;;9.82;3.40;;;;;;;2.62;84.13;102578.56;5032476;28;20106;-40
2021/04/02 03:27:42;;;;;;;8.65;3.17;;;;;;;2.64;84.85;102575.97;5047194;28;20481;-40
2021/04/02 03:30:11;;;;;;;11.65;3.53;;;;;;;2.61;84.73;102579.44;5031977;28;20056;-40
2021/04/02 03:32:45;;;;;;;9.93;3.20;;;;;;;2.65;85.40;102588.09;5030845;28;20139;-40
2021/04/02 03:35:13;;;;;;;10.18;4.07;;;;;;;2.62;85.86;102586.34;5014132;28;20123;-40
2021/04/02 03:37:42;;;;;;;9.63;3.97;;;;;;;2.61;85.94;102583.78;5028748;28;20060;-40
2021/04/02 03:40:14;;;;;;;14.95;4.22;;;;;;;2.63;86.11;102579.41;5031218;28;20049;-40
2021/04/02 03:42:41;;;;;;;17.92;5.20;;;;;;;2.66;86.33;102577.69;5031359;28;20079;-39
2021/04/02 03:45:11;;;;;;;15.73;4.32;;;;;;;2.63;85.96;102585.50;5029265;28;20041;-39
2021/04/02 03:47:38;;;;;;;11.77;4.60;;;;;;;2.62;86.89;102577.69;5029617;28;20531;-39
2021/04/02 03:50:11;;;;;;;12.82;5.20;;;;;;;2.62;86.66;102575.97;5019297;28;20057;-40
2021/04/02 03:52:41;;;;;;;13.63;4.47;;;;;;;2.65;86.42;102582.88;5009763;28;20147;-39
2021/04/02 03:55:11;;;;;;;13.32;4.43;;;;;;;2.65;86.74;102585.47;5028343;28;20048;-40
2021/04/02 03:57:39;;;;;;;9.68;4.22;;;;;;;2.72;87.02;102583.72;5012555;28;20473;-39
2021/04/02 04:00:17;;;;;;;11.25;4.60;;;;;;;2.66;86.98;102585.47;5010569;28;20517;-39
2021/04/02 04:02:44;;;;;;;13.48;5.22;;;;;;;2.64;87.11;102587.19;5011817;28;20061;-40
2021/04/02 04:05:14;;;;;;;14.43;5.20;;;;;;;2.67;87.17;102586.31;5016414;28;20132;-39
2021/04/02 04:07:43;;;;;;;14.43;5.55;;;;;;;2.75;87.38;102594.09;5030510;28;20450;-39
2021/04/02 04:10:14;;;;;;;15.57;5.32;;;;;;;2.73;87.07;102580.22;5031369;28;20049;-39
2021/04/02 04:12:43;;;;;;;14.77;5.47;;;;;;;2.73;86.93;102580.22;5030247;28;20081;-40
2021/04/02 04:15:11;;;;;;;15.35;5.18;;;;;;;2.75;87.17;102575.91;5028823;28;20045;-39
2021/04/02 04:17:40;;;;;;;11.27;4.72;;;;;;;2.81;86.77;102578.47;5010402;28;20041;-40
2021/04/02 04:20:10;;;;;;;13.07;5.70;;;;;;;2.78;86.76;102576.78;5014488;28;20068;-40
2021/04/02 04:22:38;;;;;;;15.27;5.63;;;;;;;2.75;86.95;102592.34;5010463;28;20046;-40
2021/04/02 04:25:07;;;;;;;15.55;5.85;;;;;;;2.75;87.04;102587.16;5026722;28;20100;-40
2021/04/02 04:27:35;;;;;;;15.32;5.65;;;;;;;2.73;87.03;102596.72;5026628;28;20053;-39
2021/04/02 04:30:04;;;;;;;14.55;5.57;;;;;;;2.72;87.09;102594.97;5040563;28;20060;-40
2021/04/02 04:32:31;;;;;;;14.55;5.40;;;;;;;2.72;87.10;102596.72;5014943;28;20037;-40
2021/04/02 04:35:00;;;;;;;13.32;5.60;;;;;;;2.70;86.52;102596.72;5015272;28;20505;-38
2021/04/02 04:37:27;;;;;;;14.63;5.60;;;;;;;2.70;86.34;102607.13;5033275;28;20049;-38
2021/04/02 04:39:55;;;;;;;12.00;5.20;;;;;;;2.67;86.47;102602.81;5034840;28;20041;-38
2021/04/02 04:42:23;;;;;;;15.60;4.93;;;;;;;2.70;86.16;102607.97;5035760;28;20080;-38
2021/04/02 04:44:54;;;;;;;12.82;4.72;;;;;;;2.76;85.59;102607.09;5039890;28;20072;-38
2021/04/02 04:47:21;;;;;;;14.68;5.50;;;;;;;2.68;85.76;102608.84;5034650;28;20440;-38
2021/04/02 04:49:51;;;;;;;17.15;5.13;;;;;;;2.63;85.80;102605.41;5032141;28;20099;-38
2021/04/02 04:52:21;;;;;;;14.52;5.20;;;;;;;2.66;85.72;102602.81;5017010;28;20108;-38
2021/04/02 04:54:55;;;;;;;12.82;5.65;;;;;;;2.69;85.39;102608.00;5034616;28;20504;-38
2021/04/02 04:57:23;;;;;;;12.65;5.15;;;;;;;2.68;85.65;102607.09;5033185;28;20060;-38
2021/04/02 04:59:52;;;;;;;10.18;4.57;;;;;;;2.61;85.39;102609.75;5047328;28;20037;-38
2021/04/02 05:02:22;;;;;;;10.00;4.43;;;;;;;2.65;85.22;102612.31;5033698;28;20099;-38
2021/04/02 05:04:50;;;;;;;11.20;4.32;;;;;;;2.56;85.40;102611.50;5023718;28;20049;-37
2021/04/02 05:07:18;;;;;;;16.40;4.65;;;;;;;2.73;84.71;102614.00;5013322;28;20411;-38
2021/04/02 05:09:46;;;;;;;16.77;4.45;;;;;;;2.69;85.01;102611.44;5006469;28;20049;-37
2021/04/02 05:12:15;;;;;;;13.57;4.90;;;;;;;2.58;84.80;102618.41;5033107;28;20077;-38
2021/04/02 05:14:42;;;;;;;13.52;4.85;;;;;;;2.56;84.94;102620.13;5004294;28;20046;-38
2021/04/02 05:17:10;;;;;;;9.32;4.47;;;;;;;2.51;84.85;102620.16;5046825;28;20099;-38
2021/04/02 05:19:39;;;;;;;11.63;4.35;;;;;;;2.46;85.30;102621.91;5016287;28;20558;-38
2021/04/02 05:22:09;;;;;;;14.10;4.88;;;;;;;2.49;84.87;102624.47;5049061;28;20045;-38
2021/04/02 05:24:37;;;;;;;16.73;4.85;;;;;;;2.45;84.92;102622.75;5000047;28;20411;-38
2021/04/02 05:27:05;;;;;;;9.90;4.40;;;;;;;2.50;84.69;102631.41;5033925;28;20049;-38
2021/04/02 05:29:35;;;;;;;11.98;4.10;;;;;;;2.44;85.02;102634.03;5033150;28;20041;-40
2021/04/02 05:32:03;;;;;;;13.48;4.70;;;;;;;2.42;85.21;102640.09;5026353;28;20052;-39
2021/04/02 05:34:30;;;;;;;13.38;4.07;;;;;;;2.42;84.63;102640.09;5013606;28;20049;-39
2021/04/02 05:37:01;;;;;;;16.52;4.47;;;;;;;2.40;84.99;102647.03;5013246;28;20100;-39
2021/04/02 05:39:27;;;;;;;17.15;4.07;;;;;;;2.41;85.00;102646.16;5013610;28;20054;-39
2021/04/02 05:42:01;;;;;;;11.77;4.13;;;;;;;2.44;84.70;102647.03;5036401;28;20111;-40
2021/04/02 05:44:35;;;;;;;11.95;5.13;;;;;;;2.42;84.74;102643.56;5033491;28;20500;-38
2021/04/02 05:47:05;;;;;;;12.32;4.63;;;;;;;2.42;85.20;102635.78;5046884;28;20045;-39
2021/04/02 05:49:32;;;;;;;12.02;3.80;;;;;;;2.43;84.61;102647.03;5013795;28;20129;-40
2021/04/02 05:52:01;;;;;;;10.80;4.10;;;;;;;2.42;85.08;102640.97;5028834;28;20072;-38
2021/04/02 05:54:36;;;;;;;13.10;4.38;;;;;;;2.43;84.99;102637.50;5012348;28;20052;-38
2021/04/02 05:57:04;;;;;;;12.30;4.40;;;;;;;2.43;84.95;102636.66;5017315;28;20049;-40
2021/04/02 05:59:31;;;;;;;11.95;4.28;;;;;;;2.47;84.30;102639.22;5031837;28;20045;-39
2021/04/02 06:01:58;;;;;;;13.15;4.80;;;;;;;2.46;84.56;102640.09;5015773;28;20132;-38
2021/04/02 06:04:25;;;;;;;14.25;4.43;;;;;;;2.49;84.70;102637.47;5008900;28;20061;-37
2021/04/02 06:06:52;;;;;;;13.98;3.97;;;;;;;2.54;84.53;102637.47;5013555;28;20488;-39
2021/04/02 06:09:20;;;;;;;13.38;4.30;;;;;;;2.60;83.99;102632.25;5013579;28;20046;-38
2021/04/02 06:11:47;;;;;;;12.32;4.55;;;;;;;2.58;84.85;102636.59;5018987;28;20277;-38
2021/04/02 06:14:16;;;;;;;12.73;4.07;;;;;;;2.65;84.12;102640.03;5023292;28;20523;-39
2021/04/02 06:16:51;;;;;;;9.57;4.05;;;;;;;2.66;84.27;102632.25;5032954;28;20393;-38
2021/04/02 06:19:19;;;;;;;13.68;4.20;;;;;;;2.68;83.94;102640.03;5031831;28;20457;-37
2021/04/02 06:21:57;;;;;;;10.10;3.80;;;;;;;2.73;83.82;102630.50;5016375;28;20499;-38
2021/04/02 06:24:42;;;;;;;12.15;4.05;;;;;;;2.75;83.64;102627.88;5028187;28;20112;-38
2021/04/02 06:27:14;;;;;;;11.02;3.53;;;;;;;2.86;83.38;102639.09;5011685;28;20054;-38
2021/04/02 06:29:43;;;;;;;11.80;3.95;;;;;;;2.86;83.18;102636.50;5028135;28;20046;-38
2021/04/02 06:32:36;;;;;;;13.88;4.18;;;;;;;2.97;82.73;102632.13;5013186;28;20526;-38
2021/04/02 06:35:08;;;;;;;12.90;3.78;;;;;;;3.05;82.99;102629.47;5017666;28;20087;-38
2021/04/02 06:37:36;;;;;;;13.67;3.87;;;;;;;3.10;82.55;102629.47;5032011;28;20060;-38
2021/04/02 06:40:14;;;;;;;10.43;3.22;;;;;;;3.22;81.43;102630.25;5031282;28;20309;-38
2021/04/02 06:42:43;;;;;;;8.35;3.08;;;;;;;3.29;81.33;102633.69;5032502;28;20049;-38
2021/04/02 06:45:11;;;;;;;10.95;3.45;;;;;;;3.36;81.15;102627.56;5032063;28;20107;-38
2021/04/02 06:47:43;;;;;;;11.05;3.42;;;;;;;3.49;80.56;102632.66;5024057;28;20042;-38
2021/04/02 06:50:27;;;;;;;15.27;4.03;;;;;;;3.60;79.86;102637.81;5031861;28;20053;-38
2021/04/02 06:52:57;;;;;;;14.32;3.42;;;;;;;3.68;79.28;102636.88;5014421;28;20416;-37
2021/04/02 06:55:26;;;;;;;10.10;3.25;;;;;;;3.77;78.46;102640.28;5014960;28;20049;-38
2021/04/02 06:57:54;;;;;;;12.38;3.10;;;;;;;3.87;78.59;102636.72;5031047;28;20488;-39
2021/04/02 07:00:23;;;;;;;10.35;3.25;;;;;;;4.02;77.60;102644.41;5031152;28;20053;-37
2021/04/02 07:02:54;;;;;;;10.93;2.88;;;;;;;4.07;76.79;102633.94;5032441;28;20058;-38
2021/04/02 07:05:26;;;;;;;12.63;3.22;;;;;;;4.18;76.53;102636.44;5028516;28;20051;-38
2021/04/02 07:08:06;;;;;;;10.27;2.78;;;;;;;4.32;74.76;102634.59;5012241;28;20076;-37
2021/04/02 07:10:37;;;;;;;9.25;3.25;;;;;;;4.43;75.40;102652.72;5011389;28;20103;-39
2021/04/02 07:13:07;;;;;;;12.20;2.70;;;;;;;4.55;75.10;102643.88;5014880;28;20046;-38
2021/04/02 07:15:35;;;;;;;10.15;2.85;;;;;;;4.77;74.01;102641.88;4998173;28;20067;-37
2021/04/02 07:18:10;;;;;;;14.98;3.05;;;;;;;4.88;73.17;102649.56;5031562;28;20121;-38
2021/04/02 07:20:37;;;;;;;7.40;2.60;;;;;;;4.97;72.52;102651.22;5029066;28;20056;-38
2021/04/02 07:23:04;;;;;;;11.82;3.05;;;;;;;5.09;71.61;102645.84;5032082;28;20045;-38
2021/04/02 07:25:32;;;;;;;8.98;2.58;;;;;;;5.23;72.00;102656.94;5031949;28;20049;-39
2021/04/02 07:28:00;;;;;;;12.20;3.03;;;;;;;5.32;70.05;102648.13;5031868;28;20046;-38
2021/04/02 07:30:30;;;;;;;11.82;2.42;;;;;;;5.49;69.95;102663.53;4996764;28;20046;-39
2021/04/02 07:33:09;;;;;;;10.75;2.60;;;;;;;5.55;68.46;102660.84;5011037;28;20065;-38
2021/04/02 07:35:41;;;;;;;9.75;2.63;;;;;;;5.57;68.31;102659.06;5005572;28;20045;-39
2021/04/02 07:38:15;;;;;;;14.50;2.47;;;;;;;5.70;68.08;102659.75;5030676;28;20049;-38
2021/04/02 07:40:48;;;;;;;12.52;2.35;;;;;;;5.72;67.40;102657.97;5031654;28;20047;-40
2021/04/02 07:43:15;;;;;;;9.30;2.55;;;;;;;5.72;66.79;102657.09;5026560;28;20054;-38
2021/04/02 07:45:51;;;;;;;12.35;2.40;;;;;;;5.65;67.61;102655.50;4994392;28;20251;-38
2021/04/02 07:48:21;;;;;;;10.68;2.67;;;;;;;5.62;67.14;102658.13;5030783;28;20392;-38
2021/04/02 07:50:56;;;;;;;12.60;2.63;;;;;;;5.63;66.94;102652.03;5011612;28;20068;-38
2021/04/02 07:53:23;;;;;;;9.68;2.60;;;;;;;5.63;66.98;102659.84;5009841;28;20714;-38
2021/04/02 07:56:19;;;;;;;9.80;2.42;;;;;;;5.52;65.81;102658.28;5019174;28;20045;-38
2021/04/02 07:58:49;;;;;;;11.23;2.50;;;;;;;5.64;66.00;102664.19;5009522;28;20041;-38
2021/04/02 08:01:18;;;;;;;13.57;2.95;;;;;;;5.72;65.80;102660.56;5030016;28;20041;-38
2021/04/02 08:03:49;;;;;;;12.52;2.58;;;;;;;5.66;65.55;102670.25;5030078;28;20049;-40
2021/04/02 08:06:36;;;;;;;7.60;2.10;;;;;;;5.63;65.28;102668.56;5017659;28;20130;-40
2021/04/02 08:09:16;;;;;;;8.60;1.98;;;;;;;5.53;64.57;102673.03;5035362;28;20068;-40
2021/04/02 08:11:47;;;;;;;8.50;2.20;;;;;;;5.89;63.94;102667.25;5035579;28;20124;-40
2021/04/02 08:14:33;;;;;;;9.30;2.43;;;;;;;6.24;63.15;102674.56;5033742;28;20042;-40
2021/04/02 08:17:01;;;;;;;9.70;2.08;;;;;;;6.57;62.20;102685.28;5032762;28;20124;-40
2021/04/02 08:19:28;;;;;;;11.80;2.13;;;;;;;6.63;61.51;102686.91;5035177;28;20072;-38
2021/04/02 08:21:58;;;;;;;11.48;2.10;;;;;;;6.89;59.63;102678.53;5030716;28;20060;-38
2021/04/02 08:24:28;;;;;;;9.57;2.50;;;;;;;7.06;59.47;102683.44;5035295;28;20100;-38
2021/04/02 08:26:56;;;;;;;9.10;2.10;;;;;;;7.15;59.38;102682.38;5035459;28;20048;-38
2021/04/02 08:29:25;;;;;;;9.68;1.80;;;;;;;7.33;59.20;102681.09;5033621;28;20053;-38
2021/04/02 08:32:00;;;;;;;5.35;1.50;;;;;;;7.36;58.60;102688.91;5033890;28;20470;-38
2021/04/02 08:34:28;;;;;;;10.30;2.03;;;;;;;7.48;57.42;102686.91;5030145;28;20045;-40
2021/04/02 08:36:57;;;;;;;9.15;2.08;;;;;;;7.44;57.93;102680.88;5033925;28;20103;-40
2021/04/02 08:39:25;;;;;;;5.10;1.70;;;;;;;7.51;57.05;102673.75;5033524;28;20061;-40
2021/04/02 08:42:02;;;;;;;11.02;2.05;;;;;;;7.42;57.51;102682.69;5033706;28;20407;-40
2021/04/02 08:44:48;;;;;;;11.75;2.40;;;;;;;7.20;58.15;102683.16;5033710;28;20073;-40
2021/04/02 08:47:17;;;;;;;8.32;2.33;;;;;;;7.23;57.34;102684.84;5034019;28;20068;-40
2021/04/02 08:49:53;;;;;;;11.32;2.40;;;;;;;7.34;56.52;102680.22;5034198;28;20080;-40
2021/04/02 08:52:25;;;;;;;10.52;2.47;;;;;;;7.40;56.99;102673.97;5033774;28;20152;-40
2021/04/02 08:54:55;;;;;;;12.75;3.03;;;;;;;7.37;56.74;102674.91;5033465;28;20063;-39
2021/04/02 08:57:25;;;;;;;8.48;2.40;;;;;;;7.43;56.86;102684.38;5034926;28;20129;-38
2021/04/02 08:59:53;;;;;;;8.93;2.00;;;;;;;7.33;56.99;102680.25;5033093;28;20128;-38
2021/04/02 09:02:27;;;;;;;10.25;3.03;;;;;;;7.24;57.67;102674.34;5032891;28;20049;-38
2021/04/02 09:04:54;;;;;;;13.60;3.00;;;;;;;7.39;57.02;102677.50;5033211;28;20054;-38
2021/04/02 09:07:22;;;;;;;11.05;2.65;;;;;;;7.44;56.48;102680.88;5033252;28;20052;-38
2021/04/02 09:09:49;;;;;;;11.18;3.22;;;;;;;7.45;55.05;102688.69;5034078;28;20132;-39
2021/04/02 09:12:19;;;;;;;9.20;2.63;;;;;;;7.78;54.15;102685.31;5034006;28;20365;-38
2021/04/02 09:14:50;;;;;;;11.40;2.95;;;;;;;7.55;54.42;102698.94;5033658;28;20057;-38
2021/04/02 09:17:25;;;;;;;8.57;2.85;;;;;;;7.43;54.24;102689.63;5031266;28;20056;-38
2021/04/02 09:19:54;;;;;;;10.70;3.33;;;;;;;7.41;55.81;102696.66;5034125;28;20179;-38
2021/04/02 09:22:22;;;;;;;14.25;3.92;;;;;;;7.28;56.76;102694.31;5033969;28;20128;-38
2021/04/02 09:24:49;;;;;;;11.70;3.20;;;;;;;7.28;57.06;102691.69;5032713;28;20135;-39
2021/04/02 09:27:19;;;;;;;10.52;3.67;;;;;;;7.31;57.10;102689.88;5015956;28;20439;-39
2021/04/02 09:29:58;;;;;;;10.05;3.50;;;;;;;7.33;56.15;102688.13;5033711;28;20045;-38
2021/04/02 09:32:31;;;;;;;14.90;4.10;;;;;;;7.40;55.66;102684.44;5033985;28;20041;-39
2021/04/02 09:35:04;;;;;;;12.48;4.07;;;;;;;7.18;56.72;102678.84;5048692;28;20485;-40
2021/04/02 09:37:32;;;;;;;;;;;;;;;7.23;56.38;102683.06;5032812;28;20045;-40
2021/04/02 09:40:04;;;;;;;11.93;3.60;;;;;;;7.39;57.07;102683.59;5048892;28;19928;-40
2021/04/02 09:42:33;;;;;;;11.25;3.47;;;;;;;7.38;56.09;102681.03;5033676;28;20061;-40
2021/04/02 09:45:05;;;;;;;10.82;3.17;;;;;;;7.41;56.14;102676.56;5033914;28;20071;-40
2021/04/02 09:47:43;;;;;;;9.48;3.53;;;;;;;7.52;55.49;102673.69;5033518;28;20041;-40
2021/04/02 09:50:11;;;;;;;13.40;3.67;;;;;;;7.49;56.43;102665.06;5032152;28;20041;-40
2021/04/02 09:52:39;;;;;;;12.93;3.78;;;;;;;7.44;55.83;102659.94;5032325;28;20489;-40
2021/04/02 09:55:07;;;;;;;11.85;3.60;;;;;;;7.52;56.22;102663.22;5033566;28;20050;-38
2021/04/02 09:57:35;;;;;;;12.57;4.32;;;;;;;7.47;55.36;102665.09;5032004;28;20049;-38
2021/04/02 10:00:05;;;;;;;9.20;4.10;;;;;;;7.50;55.65;102661.53;5033267;28;20080;-39
2021/04/02 10:02:36;;;;;;;15.02;4.28;;;;;;;7.52;54.74;102667.63;5033136;28;20041;-40
2021/04/02 10:05:05;;;;;;;9.85;3.95;;;;;;;7.63;55.63;102681.31;5033175;28;20059;-40
2021/04/02 10:07:32;;;;;;;9.25;3.63;;;;;;;7.63;54.80;102669.97;5032796;28;20048;-39
2021/04/02 10:10:06;;;;;;;10.75;3.55;;;;;;;7.68;53.90;102676.81;5032689;28;20417;-43
2021/04/02 10:12:34;;;;;;;14.55;4.25;;;;;;;7.64;53.76;102676.94;5031279;28;20041;-40
2021/04/02 10:15:03;;;;;;;13.30;3.75;;;;;;;7.75;53.77;102680.16;5033193;28;20041;-40
2021/04/02 10:17:30;;;;;;;10.80;3.30;;;;;;;7.73;52.36;102681.94;5032967;28;20137;-40
2021/04/02 10:19:57;;;;;;;8.23;3.55;;;;;;;7.88;52.66;102688.56;5033078;28;20041;-41
2021/04/02 10:22:24;;;;;;;12.85;3.88;;;;;;;8.09;52.09;102677.56;5031821;28;20073;-41
2021/04/02 10:24:52;;;;;;;10.27;4.05;;;;;;;8.09;51.39;102674.94;5033175;28;21013;-39
2021/04/02 10:27:19;;;;;;;11.48;3.85;;;;;;;8.03;51.95;102682.09;5032179;28;20061;-39
2021/04/02 10:29:46;;;;;;;10.95;3.83;;;;;;;8.13;52.18;102680.97;5031304;28;20050;-39
2021/04/02 10:32:13;;;;;;;11.02;3.88;;;;;;;8.18;51.83;102676.47;5032929;28;20049;-39
2021/04/02 10:34:40;;;;;;;9.70;3.30;;;;;;;8.24;51.45;102672.84;5032730;28;20053;-39
2021/04/02 10:37:11;;;;;;;12.75;3.83;;;;;;;8.19;52.08;102678.19;5032603;28;20090;-39
2021/04/02 10:39:39;;;;;;;13.48;3.78;;;;;;;8.27;51.23;102686.72;5032372;28;20128;-39
2021/04/02 10:42:06;;;;;;;12.40;3.60;;;;;;;8.51;51.44;102679.13;5032938;28;20496;-39
2021/04/02 10:44:33;;;;;;;10.63;3.60;;;;;;;8.34;50.63;102684.78;5032403;28;20053;-39
2021/04/02 10:47:03;;;;;;;10.77;3.60;;;;;;;8.57;51.34;102689.44;5032452;28;20046;-39
2021/04/02 10:49:30;;;;;;;11.32;3.97;;;;;;;8.74;50.18;102675.00;5030520;28;20079;-39
2021/04/02 10:51:57;;;;;;;12.18;4.07;;;;;;;8.75;49.74;102676.72;5030898;28;20081;-39
2021/04/02 10:54:26;;;;;;;11.48;3.67;;;;;;;9.11;49.43;102681.84;5032630;28;20486;-39
2021/04/02 10:56:53;;;;;;;11.55;2.70;;;;;;;9.14;47.87;102676.47;5032224;28;20045;-39
2021/04/02 10:59:20;;;;;;;12.60;3.17;;;;;;;9.30;47.99;102669.84;5032309;28;20072;-39
2021/04/02 11:01:47;;;;;;;9.77;3.13;;;;;;;9.90;48.03;102680.22;5030750;28;20057;-39
2021/04/02 11:04:24;;;;;;;11.60;2.42;;;;;;;10.11;46.10;102670.75;5029752;28;20111;-39
2021/04/02 11:07:08;;;;;;;7.40;2.50;;;;;;;10.00;46.88;102669.41;5016609;28;20053;-39
2021/04/02 11:09:35;;;;;;;9.23;2.50;;;;;;;9.70;46.92;102662.47;5014377;28;20286;-39
2021/04/02 11:12:06;;;;;;;9.02;2.58;;;;;;;10.00;46.63;102665.00;5029655;28;20073;-40
2021/04/02 11:14:34;;;;;;;9.02;2.60;;;;;;;9.75;46.38;102683.38;5030456;28;20049;-39
2021/04/02 11:17:01;;;;;;;8.73;2.40;;;;;;;9.92;45.86;102662.63;5030905;28;20056;-39
2021/04/02 11:19:31;;;;;;;11.48;2.42;;;;;;;9.76;45.80;102664.03;5031939;28;20125;-39
2021/04/02 11:21:58;;;;;;;7.90;2.13;;;;;;;9.87;45.19;102663.69;5032481;28;20519;-39
2021/04/02 11:24:29;;;;;;;9.95;2.10;;;;;;;10.34;45.82;102663.00;5031805;28;20057;-39
2021/04/02 11:26:57;;;;;;;12.52;2.40;;;;;;;10.18;44.70;102666.13;5032170;28;20094;-39
2021/04/02 11:29:24;;;;;;;10.32;2.20;;;;;;;10.38;44.76;102659.38;5031826;28;20514;-39
2021/04/02 11:31:55;;;;;;;8.27;2.20;;;;;;;10.41;44.59;102652.22;5031905;28;20060;-39
2021/04/02 11:34:22;;;;;;;7.95;1.95;;;;;;;10.75;43.18;102650.16;5031937;28;20049;-39
2021/04/02 11:36:55;;;;;;;9.20;1.90;;;;;;;10.98;43.29;102634.31;5031692;28;20408;-40
2021/04/02 11:39:24;;;;;;;7.93;2.90;;;;;;;10.47;44.28;102636.22;5029788;28;20069;-40
2021/04/02 11:41:51;;;;;;;10.77;2.28;;;;;;;10.70;45.21;102628.41;5031514;28;20057;-39